sensor_id;sensor_type;location;lat;lon;timestamp;pressure;altitude;pressure_sealevel;temperature;humidity
3960;BME280;1994;48.640;8.894;2022-08-20T00:01:44;96135.94;;;20.60;74.51
3960;BME280;1994;48.640;8.894;2022-08-20T00:04:12;96139.00;;;20.54;74.94
3960;BME280;1994;48.640;8.894;2022-08-20T00:06:39;96141.81;;;20.57;74.77
3960;BME280;1994;48.640;8.894;2022-08-20T00:09:08;96141.63;;;20.54;75.32
3960;BME280;1994;48.640;8.894;2022-08-20T00:11:34;96136.94;;;20.51;75.37
3960;BME280;1994;48.640;8.894;2022-08-20T00:14:04;96144.81;;;20.51;75.37
3960;BME280;1994;48.640;8.894;2022-08-20T00:16:35;96149.00;;;20.52;75.65
3960;BME280;1994;48.640;8.894;2022-08-20T00:19:05;96150.69;;;20.48;75.75
3960;BME280;1994;48.640;8.894;2022-08-20T00:21:32;96140.03;;;20.53;75.79
3960;BME280;1994;48.640;8.894;2022-08-20T00:23:57;96142.38;;;20.54;75.44
3960;BME280;1994;48.640;8.894;2022-08-20T00:26:24;96142.56;;;20.58;75.61
3960;BME280;1994;48.640;8.894;2022-08-20T00:28:53;96127.28;;;20.60;75.61
3960;BME280;1994;48.640;8.894;2022-08-20T00:31:22;96136.72;;;20.61;75.53
3960;BME280;1994;48.640;8.894;2022-08-20T00:33:49;96120.94;;;20.61;75.42
3960;BME280;1994;48.640;8.894;2022-08-20T00:36:19;96141.00;;;20.57;75.79
3960;BME280;1994;48.640;8.894;2022-08-20T00:38:46;96141.00;;;20.57;75.83
3960;BME280;1994;48.640;8.894;2022-08-20T00:41:18;96143.53;;;20.62;75.48
3960;BME280;1994;48.640;8.894;2022-08-20T00:44:14;96143.06;;;20.60;75.53
3960;BME280;1994;48.640;8.894;2022-08-20T00:46:42;96147.44;;;20.64;75.67
3960;BME280;1994;48.640;8.894;2022-08-20T00:49:16;96152.41;;;20.66;75.58
3960;BME280;1994;48.640;8.894;2022-08-20T00:52:05;96143.25;;;20.63;75.73
3960;BME280;1994;48.640;8.894;2022-08-20T00:54:52;96140.81;;;20.67;75.74
3960;BME280;1994;48.640;8.894;2022-08-20T00:57:40;96148.69;;;20.67;75.56
3960;BME280;1994;48.640;8.894;2022-08-20T01:00:26;96147.03;;;20.71;75.43
3960;BME280;1994;48.640;8.894;2022-08-20T01:02:56;96147.41;;;20.78;75.31
3960;BME280;1994;48.640;8.894;2022-08-20T01:05:22;96145.34;;;20.75;75.70
3960;BME280;1994;48.640;8.894;2022-08-20T01:07:50;96141.16;;;20.74;75.45
3960;BME280;1994;48.640;8.894;2022-08-20T01:10:25;96150.16;;;20.73;75.89
3960;BME280;1994;48.640;8.894;2022-08-20T01:12:55;96143.31;;;20.72;75.60
3960;BME280;1994;48.640;8.894;2022-08-20T01:15:26;96139.78;;;20.76;75.58
3960;BME280;1994;48.640;8.894;2022-08-20T01:17:55;96145.25;;;20.80;75.52
3960;BME280;1994;48.640;8.894;2022-08-20T01:21:00;96146.41;;;20.87;75.27
3960;BME280;1994;48.640;8.894;2022-08-20T01:26:43;96151.13;;;20.90;74.76
3960;BME280;1994;48.640;8.894;2022-08-20T01:29:16;96155.59;;;20.90;75.12
3960;BME280;1994;48.640;8.894;2022-08-20T01:31:43;96156.56;;;20.94;74.73
3960;BME280;1994;48.640;8.894;2022-08-20T01:34:18;96153.94;;;20.94;74.63
3960;BME280;1994;48.640;8.894;2022-08-20T01:36:54;96163.50;;;20.90;74.89
3960;BME280;1994;48.640;8.894;2022-08-20T01:39:33;96158.72;;;20.92;74.71
3960;BME280;1994;48.640;8.894;2022-08-20T01:44:44;96166.13;;;20.90;74.92
3960;BME280;1994;48.640;8.894;2022-08-20T01:50:22;96168.66;;;20.95;74.83
3960;BME280;1994;48.640;8.894;2022-08-20T01:52:51;96166.38;;;20.88;74.81
3960;BME280;1994;48.640;8.894;2022-08-20T01:55:19;96171.09;;;20.91;74.86
3960;BME280;1994;48.640;8.894;2022-08-20T01:57:46;96180.38;;;20.89;75.12
3960;BME280;1994;48.640;8.894;2022-08-20T02:00:15;96163.75;;;20.88;75.02
3960;BME280;1994;48.640;8.894;2022-08-20T02:02:42;96174.81;;;20.90;75.14
3960;BME280;1994;48.640;8.894;2022-08-20T02:05:08;96173.03;;;20.86;75.28
3960;BME280;1994;48.640;8.894;2022-08-20T02:07:37;96179.38;;;20.85;75.52
3960;BME280;1994;48.640;8.894;2022-08-20T02:10:08;96179.38;;;20.85;75.26
3960;BME280;1994;48.640;8.894;2022-08-20T02:12:34;96178.78;;;20.88;75.40
3960;BME280;1994;48.640;8.894;2022-08-20T02:15:01;96182.50;;;20.87;75.08
3960;BME280;1994;48.640;8.894;2022-08-20T02:17:28;96179.97;;;20.82;75.59
3960;BME280;1994;48.640;8.894;2022-08-20T02:20:00;96179.97;;;20.82;75.58
3960;BME280;1994;48.640;8.894;2022-08-20T02:22:46;96173.72;;;20.78;75.91
3960;BME280;1994;48.640;8.894;2022-08-20T02:25:14;96170.53;;;20.81;75.64
3960;BME280;1994;48.640;8.894;2022-08-20T02:27:44;96172.06;;;20.82;75.59
3960;BME280;1994;48.640;8.894;2022-08-20T02:30:36;96174.72;;;20.82;75.70
3960;BME280;1994;48.640;8.894;2022-08-20T02:33:06;96176.84;;;20.80;75.50
3960;BME280;1994;48.640;8.894;2022-08-20T02:35:32;96175.91;;;20.76;75.80
3960;BME280;1994;48.640;8.894;2022-08-20T02:37:58;96178.41;;;20.81;75.48
3960;BME280;1994;48.640;8.894;2022-08-20T02:40:30;96172.19;;;20.77;75.67
3960;BME280;1994;48.640;8.894;2022-08-20T02:42:58;96166.31;;;20.80;75.72
3960;BME280;1994;48.640;8.894;2022-08-20T02:45:25;96178.31;;;20.72;75.88
3960;BME280;1994;48.640;8.894;2022-08-20T02:47:51;96172.00;;;20.73;76.17
3960;BME280;1994;48.640;8.894;2022-08-20T02:50:20;96174.91;;;20.72;76.32
3960;BME280;1994;48.640;8.894;2022-08-20T02:52:47;96173.84;;;20.73;76.22
3960;BME280;1994;48.640;8.894;2022-08-20T02:55:13;96171.22;;;20.73;76.33
3960;BME280;1994;48.640;8.894;2022-08-20T02:57:40;96177.56;;;20.72;76.34
3960;BME280;1994;48.640;8.894;2022-08-20T03:00:12;96174.63;;;20.73;76.29
3960;BME280;1994;48.640;8.894;2022-08-20T03:02:39;96167.59;;;20.69;76.31
3960;BME280;1994;48.640;8.894;2022-08-20T03:05:06;96172.50;;;20.62;76.54
3960;BME280;1994;48.640;8.894;2022-08-20T03:07:43;96168.13;;;20.57;77.00
3960;BME280;1994;48.640;8.894;2022-08-20T03:10:10;96172.03;;;20.60;76.80
3960;BME280;1994;48.640;8.894;2022-08-20T03:12:37;96169.50;;;20.55;77.13
3960;BME280;1994;48.640;8.894;2022-08-20T03:15:05;96162.97;;;20.52;76.88
3960;BME280;1994;48.640;8.894;2022-08-20T03:17:32;96165.41;;;20.49;77.29
3960;BME280;1994;48.640;8.894;2022-08-20T03:19:58;96169.13;;;20.48;77.38
3960;BME280;1994;48.640;8.894;2022-08-20T03:22:24;96166.97;;;20.50;77.49
3960;BME280;1994;48.640;8.894;2022-08-20T03:24:49;96169.69;;;20.45;77.50
3960;BME280;1994;48.640;8.894;2022-08-20T03:27:15;96167.94;;;20.40;77.77
3960;BME280;1994;48.640;8.894;2022-08-20T03:29:41;96173.41;;;20.44;77.72
3960;BME280;1994;48.640;8.894;2022-08-20T03:32:07;96164.25;;;20.41;77.96
3960;BME280;1994;48.640;8.894;2022-08-20T03:34:36;96161.31;;;20.43;78.13
3960;BME280;1994;48.640;8.894;2022-08-20T03:37:04;96161.09;;;20.39;78.24
3960;BME280;1994;48.640;8.894;2022-08-20T03:39:39;96161.09;;;20.39;78.31
3960;BME280;1994;48.640;8.894;2022-08-20T03:42:07;96154.47;;;20.42;78.10
3960;BME280;1994;48.640;8.894;2022-08-20T03:44:33;96160.72;;;20.46;78.03
3960;BME280;1994;48.640;8.894;2022-08-20T03:47:03;96160.34;;;20.39;78.10
3960;BME280;1994;48.640;8.894;2022-08-20T03:49:33;96151.00;;;20.33;78.43
3960;BME280;1994;48.640;8.894;2022-08-20T03:52:00;96162.47;;;20.37;78.33
3960;BME280;1994;48.640;8.894;2022-08-20T03:54:28;96165.22;;;20.32;78.43
3960;BME280;1994;48.640;8.894;2022-08-20T03:56:54;96172.03;;;20.33;78.67
3960;BME280;1994;48.640;8.894;2022-08-20T03:59:23;96175.16;;;20.35;78.63
3960;BME280;1994;48.640;8.894;2022-08-20T04:01:49;96184.13;;;20.34;78.77
3960;BME280;1994;48.640;8.894;2022-08-20T04:04:15;96176.69;;;20.36;78.62
3960;BME280;1994;48.640;8.894;2022-08-20T04:06:41;96178.84;;;20.34;78.77
3960;BME280;1994;48.640;8.894;2022-08-20T04:09:08;96176.50;;;20.32;78.83
3960;BME280;1994;48.640;8.894;2022-08-20T04:11:34;96179.44;;;20.31;79.15
3960;BME280;1994;48.640;8.894;2022-08-20T04:14:00;96168.25;;;20.25;79.34
3960;BME280;1994;48.640;8.894;2022-08-20T04:16:25;96179.22;;;20.27;79.02
3960;BME280;1994;48.640;8.894;2022-08-20T04:18:52;96165.59;;;20.25;79.51
3960;BME280;1994;48.640;8.894;2022-08-20T04:21:20;96182.75;;;20.23;79.50
3960;BME280;1994;48.640;8.894;2022-08-20T04:23:46;96178.06;;;20.20;79.76
3960;BME280;1994;48.640;8.894;2022-08-20T04:26:17;96180.50;;;20.16;80.19
3960;BME280;1994;48.640;8.894;2022-08-20T04:28:47;96179.22;;;20.14;80.54
3960;BME280;1994;48.640;8.894;2022-08-20T04:31:17;96178.47;;;20.13;80.58
3960;BME280;1994;48.640;8.894;2022-08-20T04:33:43;96182.94;;;20.13;80.50
3960;BME280;1994;48.640;8.894;2022-08-20T04:36:09;96190.34;;;20.11;80.73
3960;BME280;1994;48.640;8.894;2022-08-20T04:38:35;96196.69;;;20.10;80.94
3960;BME280;1994;48.640;8.894;2022-08-20T04:41:01;96197.72;;;20.09;81.10
3960;BME280;1994;48.640;8.894;2022-08-20T04:43:30;96207.50;;;20.08;81.26
3960;BME280;1994;48.640;8.894;2022-08-20T04:46:01;96199.88;;;20.07;81.42
3960;BME280;1994;48.640;8.894;2022-08-20T04:48:28;96203.56;;;20.06;81.62
3960;BME280;1994;48.640;8.894;2022-08-20T04:50:55;96201.59;;;19.98;82.02
3960;BME280;1994;48.640;8.894;2022-08-20T04:53:27;96203.72;;;19.96;82.27
3960;BME280;1994;48.640;8.894;2022-08-20T04:55:57;96203.72;;;19.96;82.19
3960;BME280;1994;48.640;8.894;2022-08-20T04:58:35;96202.75;;;19.92;82.48
3960;BME280;1994;48.640;8.894;2022-08-20T05:01:09;96204.88;;;19.90;82.72
3960;BME280;1994;48.640;8.894;2022-08-20T05:03:37;96206.81;;;19.84;82.79
3960;BME280;1994;48.640;8.894;2022-08-20T05:06:08;96203.91;;;19.86;82.74
3960;BME280;1994;48.640;8.894;2022-08-20T05:08:36;96209.63;;;19.88;82.67
3960;BME280;1994;48.640;8.894;2022-08-20T05:11:04;96208.00;;;19.92;82.81
3960;BME280;1994;48.640;8.894;2022-08-20T05:13:30;96213.47;;;19.95;82.45
3960;BME280;1994;48.640;8.894;2022-08-20T05:15:57;96209.78;;;19.96;82.45
3960;BME280;1994;48.640;8.894;2022-08-20T05:18:27;96215.25;;;20.00;82.45
3960;BME280;1994;48.640;8.894;2022-08-20T05:20:55;96204.13;;;20.03;82.40
3960;BME280;1994;48.640;8.894;2022-08-20T05:23:29;96213.50;;;20.09;82.13
3960;BME280;1994;48.640;8.894;2022-08-20T05:25:57;96212.34;;;20.15;81.59
3960;BME280;1994;48.640;8.894;2022-08-20T05:28:27;96217.03;;;20.18;81.64
3960;BME280;1994;48.640;8.894;2022-08-20T05:31:00;96220.38;;;20.23;81.55
3960;BME280;1994;48.640;8.894;2022-08-20T05:33:27;96219.97;;;20.30;81.37
3960;BME280;1994;48.640;8.894;2022-08-20T05:35:55;96225.03;;;20.40;80.79
3960;BME280;1994;48.640;8.894;2022-08-20T05:38:26;96235.56;;;20.40;80.81
3960;BME280;1994;48.640;8.894;2022-08-20T05:40:52;96232.47;;;20.38;81.02
3960;BME280;1994;48.640;8.894;2022-08-20T05:43:19;96235.00;;;20.29;81.41
3960;BME280;1994;48.640;8.894;2022-08-20T05:45:47;96240.63;;;20.23;81.55
3960;BME280;1994;48.640;8.894;2022-08-20T05:48:21;96238.66;;;20.15;81.39
3960;BME280;1994;48.640;8.894;2022-08-20T05:50:49;96233.97;;;20.12;81.75
3960;BME280;1994;48.640;8.894;2022-08-20T05:53:21;96243.44;;;20.13;81.84
3960;BME280;1994;48.640;8.894;2022-08-20T05:55:47;96246.06;;;20.13;81.77
3960;BME280;1994;48.640;8.894;2022-08-20T05:58:25;96248.69;;;20.13;82.00
3960;BME280;1994;48.640;8.894;2022-08-20T06:00:52;96245.28;;;20.26;81.29
3960;BME280;1994;48.640;8.894;2022-08-20T06:03:19;96242.97;;;20.24;81.35
3960;BME280;1994;48.640;8.894;2022-08-20T06:06:11;96240.53;;;20.28;81.18
3960;BME280;1994;48.640;8.894;2022-08-20T06:08:37;96241.53;;;20.32;81.07
3960;BME280;1994;48.640;8.894;2022-08-20T06:11:04;96234.00;;;20.39;81.05
3960;BME280;1994;48.640;8.894;2022-08-20T06:13:30;96234.78;;;20.39;80.92
3960;BME280;1994;48.640;8.894;2022-08-20T06:15:56;96233.91;;;20.44;80.92
3960;BME280;1994;48.640;8.894;2022-08-20T06:18:23;96236.13;;;20.37;81.05
3960;BME280;1994;48.640;8.894;2022-08-20T06:20:49;96243.38;;;20.45;81.01
3960;BME280;1994;48.640;8.894;2022-08-20T06:23:17;96242.97;;;20.38;80.92
3960;BME280;1994;48.640;8.894;2022-08-20T06:25:43;96243.25;;;20.36;81.55
3960;BME280;1994;48.640;8.894;2022-08-20T06:28:11;96243.94;;;20.42;81.27
3960;BME280;1994;48.640;8.894;2022-08-20T06:30:38;96244.34;;;20.49;80.88
3960;BME280;1994;48.640;8.894;2022-08-20T06:33:04;96247.66;;;20.41;80.95
3960;BME280;1994;48.640;8.894;2022-08-20T06:35:33;96239.66;;;20.46;80.73
3960;BME280;1994;48.640;8.894;2022-08-20T06:37:59;96247.84;;;20.58;80.47
3960;BME280;1994;48.640;8.894;2022-08-20T06:40:28;96247.75;;;20.63;80.85
3960;BME280;1994;48.640;8.894;2022-08-20T06:42:55;96250.97;;;20.60;81.87
3960;BME280;1994;48.640;8.894;2022-08-20T06:45:26;96242.66;;;20.53;82.47
3960;BME280;1994;48.640;8.894;2022-08-20T06:47:58;96250.97;;;20.60;82.82
3960;BME280;1994;48.640;8.894;2022-08-20T06:50:31;96252.16;;;20.54;83.18
3960;BME280;1994;48.640;8.894;2022-08-20T06:52:58;96250.19;;;20.46;83.45
3960;BME280;1994;48.640;8.894;2022-08-20T06:55:25;96248.44;;;20.41;84.48
3960;BME280;1994;48.640;8.894;2022-08-20T06:58:05;96255.44;;;20.46;84.99
3960;BME280;1994;48.640;8.894;2022-08-20T07:00:34;96248.63;;;20.45;84.78
3960;BME280;1994;48.640;8.894;2022-08-20T07:03:01;96237.63;;;20.43;85.63
3960;BME280;1994;48.640;8.894;2022-08-20T07:05:40;96247.34;;;20.42;86.06
3960;BME280;1994;48.640;8.894;2022-08-20T07:08:14;96247.06;;;20.44;86.53
3960;BME280;1994;48.640;8.894;2022-08-20T07:10:43;96251.25;;;20.45;85.89
3960;BME280;1994;48.640;8.894;2022-08-20T07:13:10;96251.16;;;20.50;86.23
3960;BME280;1994;48.640;8.894;2022-08-20T07:15:37;96248.44;;;20.55;85.91
3960;BME280;1994;48.640;8.894;2022-08-20T07:18:07;96257.78;;;20.61;86.42
3960;BME280;1994;48.640;8.894;2022-08-20T07:20:35;96263.06;;;20.74;85.72
3960;BME280;1994;48.640;8.894;2022-08-20T07:23:06;96259.38;;;20.89;85.55
3960;BME280;1994;48.640;8.894;2022-08-20T07:25:37;96265.97;;;21.00;84.04
3960;BME280;1994;48.640;8.894;2022-08-20T07:28:12;96273.84;;;21.27;83.49
3960;BME280;1994;48.640;8.894;2022-08-20T07:30:39;96266.06;;;21.44;81.26
3960;BME280;1994;48.640;8.894;2022-08-20T07:33:25;96263.69;;;21.56;78.34
3960;BME280;1994;48.640;8.894;2022-08-20T07:35:51;96256.69;;;21.51;77.62
3960;BME280;1994;48.640;8.894;2022-08-20T07:38:22;96268.19;;;21.55;78.42
3960;BME280;1994;48.640;8.894;2022-08-20T07:41:00;96266.00;;;21.71;78.47
3960;BME280;1994;48.640;8.894;2022-08-20T07:43:29;96270.69;;;21.74;77.72
3960;BME280;1994;48.640;8.894;2022-08-20T07:46:03;96271.28;;;21.71;77.61
3960;BME280;1994;48.640;8.894;2022-08-20T07:48:32;96278.09;;;21.72;76.20
3960;BME280;1994;48.640;8.894;2022-08-20T07:51:01;96280.97;;;21.84;75.48
3960;BME280;1994;48.640;8.894;2022-08-20T07:53:33;96284.13;;;21.86;75.38
3960;BME280;1994;48.640;8.894;2022-08-20T07:56:05;96284.13;;;21.86;75.07
3960;BME280;1994;48.640;8.894;2022-08-20T07:58:33;96286.63;;;21.91;75.08
3960;BME280;1994;48.640;8.894;2022-08-20T08:01:00;96291.91;;;21.91;75.38
3960;BME280;1994;48.640;8.894;2022-08-20T08:03:26;96287.56;;;21.95;74.23
3960;BME280;1994;48.640;8.894;2022-08-20T08:05:54;96283.44;;;22.02;73.45
3960;BME280;1994;48.640;8.894;2022-08-20T08:08:27;96278.34;;;22.06;73.42
3960;BME280;1994;48.640;8.894;2022-08-20T08:10:59;96287.09;;;22.15;73.70
3960;BME280;1994;48.640;8.894;2022-08-20T08:13:34;96274.06;;;22.18;73.79
3960;BME280;1994;48.640;8.894;2022-08-20T08:16:05;96274.38;;;22.17;73.28
3960;BME280;1994;48.640;8.894;2022-08-20T08:18:44;96276.88;;;22.22;72.27
3960;BME280;1994;48.640;8.894;2022-08-20T08:21:11;96271.03;;;22.33;71.26
3960;BME280;1994;48.640;8.894;2022-08-20T08:23:39;96270.31;;;22.41;71.55
3960;BME280;1994;48.640;8.894;2022-08-20T08:26:13;96270.25;;;22.55;71.03
3960;BME280;1994;48.640;8.894;2022-08-20T08:28:41;96268.13;;;22.74;70.82
3960;BME280;1994;48.640;8.894;2022-08-20T08:31:09;96268.81;;;22.88;69.69
3960;BME280;1994;48.640;8.894;2022-08-20T08:33:35;96275.03;;;23.09;68.27
3960;BME280;1994;48.640;8.894;2022-08-20T08:36:06;96272.41;;;23.09;68.53
3960;BME280;1994;48.640;8.894;2022-08-20T08:38:36;96272.16;;;23.19;67.79
3960;BME280;1994;48.640;8.894;2022-08-20T08:41:31;96272.31;;;23.31;68.17
3960;BME280;1994;48.640;8.894;2022-08-20T08:44:33;96271.88;;;23.54;67.03
3960;BME280;1994;48.640;8.894;2022-08-20T08:47:25;96277.78;;;23.68;66.60
3960;BME280;1994;48.640;8.894;2022-08-20T08:49:51;96277.47;;;23.78;65.59
3960;BME280;1994;48.640;8.894;2022-08-20T08:52:27;96277.63;;;23.73;65.96
3960;BME280;1994;48.640;8.894;2022-08-20T08:54:59;96273.72;;;23.79;65.88
3960;BME280;1994;48.640;8.894;2022-08-20T08:57:26;96282.47;;;23.88;65.48
3960;BME280;1994;48.640;8.894;2022-08-20T09:00:13;96268.59;;;24.00;64.85
3960;BME280;1994;48.640;8.894;2022-08-20T09:03:00;96271.84;;;24.14;64.27
3960;BME280;1994;48.640;8.894;2022-08-20T09:05:51;96276.97;;;24.19;63.02
3960;BME280;1994;48.640;8.894;2022-08-20T09:08:23;96267.00;;;24.16;63.14
3960;BME280;1994;48.640;8.894;2022-08-20T09:10:50;96267.81;;;24.08;63.51
3960;BME280;1994;48.640;8.894;2022-08-20T09:13:16;96261.25;;;24.14;63.36
3960;BME280;1994;48.640;8.894;2022-08-20T09:15:51;96265.16;;;24.08;63.72
3960;BME280;1994;48.640;8.894;2022-08-20T09:18:17;96265.78;;;24.05;63.98
3960;BME280;1994;48.640;8.894;2022-08-20T09:20:43;96260.19;;;23.98;64.08
3960;BME280;1994;48.640;8.894;2022-08-20T09:23:08;96266.22;;;24.07;64.36
3960;BME280;1994;48.640;8.894;2022-08-20T09:25:34;96265.13;;;24.25;62.38
3960;BME280;1994;48.640;8.894;2022-08-20T09:28:00;96270.50;;;24.45;61.09
3960;BME280;1994;48.640;8.894;2022-08-20T09:30:26;96271.44;;;24.49;60.73
3960;BME280;1994;48.640;8.894;2022-08-20T09:32:52;96272.78;;;24.64;60.34
3960;BME280;1994;48.640;8.894;2022-08-20T09:35:18;96266.41;;;24.94;58.77
3960;BME280;1994;48.640;8.894;2022-08-20T09:37:44;96272.31;;;25.49;56.94
3960;BME280;1994;48.640;8.894;2022-08-20T09:40:11;96274.22;;;25.81;56.80
3960;BME280;1994;48.640;8.894;2022-08-20T09:42:38;96266.53;;;26.20;55.77
3960;BME280;1994;48.640;8.894;2022-08-20T09:45:05;96257.22;;;26.71;54.53
3960;BME280;1994;48.640;8.894;2022-08-20T09:47:31;96251.81;;;27.55;51.27
3960;BME280;1994;48.640;8.894;2022-08-20T09:49:57;96255.16;;;27.91;50.39
3960;BME280;1994;48.640;8.894;2022-08-20T09:52:27;96254.94;;;28.12;49.13
3960;BME280;1994;48.640;8.894;2022-08-20T09:55:01;96258.19;;;28.48;49.79
3960;BME280;1994;48.640;8.894;2022-08-20T09:57:29;96253.19;;;28.47;48.80
3960;BME280;1994;48.640;8.894;2022-08-20T10:00:01;96256.94;;;27.87;49.55
3960;BME280;1994;48.640;8.894;2022-08-20T10:02:31;96260.25;;;27.45;50.47
3960;BME280;1994;48.640;8.894;2022-08-20T10:04:56;96265.97;;;27.07;51.78
3960;BME280;1994;48.640;8.894;2022-08-20T10:07:22;96263.84;;;26.53;52.96
3960;BME280;1994;48.640;8.894;2022-08-20T10:09:48;96262.66;;;26.18;54.16
3960;BME280;1994;48.640;8.894;2022-08-20T10:12:13;96265.94;;;26.03;54.68
3960;BME280;1994;48.640;8.894;2022-08-20T10:14:39;96281.44;;;26.13;55.08
3960;BME280;1994;48.640;8.894;2022-08-20T10:17:08;96280.34;;;25.61;56.53
3960;BME280;1994;48.640;8.894;2022-08-20T10:19:34;96272.31;;;25.49;57.12
3960;BME280;1994;48.640;8.894;2022-08-20T10:22:00;96281.38;;;25.48;57.74
3960;BME280;1994;48.640;8.894;2022-08-20T10:24:27;96277.59;;;25.28;57.69
3960;BME280;1994;48.640;8.894;2022-08-20T10:26:56;96278.06;;;25.01;59.29
3960;BME280;1994;48.640;8.894;2022-08-20T10:29:24;96279.13;;;24.80;60.47
3960;BME280;1994;48.640;8.894;2022-08-20T10:31:50;96278.84;;;24.73;60.78
3960;BME280;1994;48.640;8.894;2022-08-20T10:34:17;96278.84;;;24.64;61.22
3960;BME280;1994;48.640;8.894;2022-08-20T10:36:43;96278.72;;;24.61;61.02
3960;BME280;1994;48.640;8.894;2022-08-20T10:39:09;96284.06;;;24.44;61.70
3960;BME280;1994;48.640;8.894;2022-08-20T10:41:35;96278.25;;;24.13;62.94
3960;BME280;1994;48.640;8.894;2022-08-20T10:44:03;96279.66;;;23.93;63.37
3960;BME280;1994;48.640;8.894;2022-08-20T10:46:31;96281.34;;;23.81;64.08
3960;BME280;1994;48.640;8.894;2022-08-20T10:48:57;96292.25;;;23.54;65.36
3960;BME280;1994;48.640;8.894;2022-08-20T10:51:23;96287.56;;;23.34;67.46
3960;BME280;1994;48.640;8.894;2022-08-20T10:53:49;96286.78;;;23.25;69.53
3960;BME280;1994;48.640;8.894;2022-08-20T10:56:15;96281.63;;;23.20;67.46
3960;BME280;1994;48.640;8.894;2022-08-20T10:58:41;96273.78;;;22.98;67.79
3960;BME280;1994;48.640;8.894;2022-08-20T11:01:07;96281.25;;;22.96;69.21
3960;BME280;1994;48.640;8.894;2022-08-20T11:03:34;96273.59;;;22.86;70.41
3960;BME280;1994;48.640;8.894;2022-08-20T11:06:00;96281.69;;;22.89;69.98
3960;BME280;1994;48.640;8.894;2022-08-20T11:08:26;96284.78;;;22.74;71.89
3960;BME280;1994;48.640;8.894;2022-08-20T11:10:52;96291.13;;;22.82;70.43
3960;BME280;1994;48.640;8.894;2022-08-20T11:13:18;96293.16;;;22.76;71.36
3960;BME280;1994;48.640;8.894;2022-08-20T11:15:44;96293.75;;;22.73;71.20
3960;BME280;1994;48.640;8.894;2022-08-20T11:18:12;96294.53;;;22.74;71.64
3960;BME280;1994;48.640;8.894;2022-08-20T11:20:38;96296.38;;;22.65;71.66
3960;BME280;1994;48.640;8.894;2022-08-20T11:23:04;96304.91;;;22.62;71.35
3960;BME280;1994;48.640;8.894;2022-08-20T11:25:30;96302.53;;;22.52;71.13
3960;BME280;1994;48.640;8.894;2022-08-20T11:27:57;96306.47;;;22.41;70.27
3960;BME280;1994;48.640;8.894;2022-08-20T11:30:29;96305.28;;;22.47;69.32
3960;BME280;1994;48.640;8.894;2022-08-20T11:32:57;96313.31;;;22.42;69.64
3960;BME280;1994;48.640;8.894;2022-08-20T11:35:25;96317.03;;;22.41;69.76
3960;BME280;1994;48.640;8.894;2022-08-20T11:37:54;96312.75;;;22.45;70.17
3960;BME280;1994;48.640;8.894;2022-08-20T11:40:21;96300.63;;;22.44;70.66
3960;BME280;1994;48.640;8.894;2022-08-20T11:42:50;96300.81;;;22.47;69.59
3960;BME280;1994;48.640;8.894;2022-08-20T11:45:18;96308.22;;;22.45;70.04
3960;BME280;1994;48.640;8.894;2022-08-20T11:47:44;96297.84;;;22.49;69.83
3960;BME280;1994;48.640;8.894;2022-08-20T11:50:19;96294.47;;;22.57;70.06
3960;BME280;1994;48.640;8.894;2022-08-20T11:52:45;96297.59;;;22.59;69.71
3960;BME280;1994;48.640;8.894;2022-08-20T11:55:14;96295.13;;;22.71;69.27
3960;BME280;1994;48.640;8.894;2022-08-20T11:57:45;96291.50;;;22.89;67.92
3960;BME280;1994;48.640;8.894;2022-08-20T12:00:19;96285.41;;;22.88;67.42
3960;BME280;1994;48.640;8.894;2022-08-20T12:02:46;96293.03;;;22.90;68.17
3960;BME280;1994;48.640;8.894;2022-08-20T12:05:13;96302.69;;;23.03;67.01
3960;BME280;1994;48.640;8.894;2022-08-20T12:07:42;96307.63;;;23.26;66.44
3960;BME280;1994;48.640;8.894;2022-08-20T12:10:08;96303.44;;;23.51;65.51
3960;BME280;1994;48.640;8.894;2022-08-20T12:12:36;96304.41;;;23.89;64.28
3960;BME280;1994;48.640;8.894;2022-08-20T12:15:04;96296.75;;;24.21;63.33
3960;BME280;1994;48.640;8.894;2022-08-20T12:17:34;96292.53;;;24.75;61.19
3960;BME280;1994;48.640;8.894;2022-08-20T12:20:09;96300.00;;;25.39;59.84
3960;BME280;1994;48.640;8.894;2022-08-20T12:22:36;96292.88;;;25.72;57.46
3960;BME280;1994;48.640;8.894;2022-08-20T12:25:02;96299.47;;;25.66;56.12
3960;BME280;1994;48.640;8.894;2022-08-20T12:27:31;96299.25;;;25.39;56.53
3960;BME280;1994;48.640;8.894;2022-08-20T12:30:00;96297.81;;;25.41;56.13
3960;BME280;1994;48.640;8.894;2022-08-20T12:32:36;96294.94;;;25.26;56.24
3960;BME280;1994;48.640;8.894;2022-08-20T12:35:03;96306.09;;;25.40;56.60
3960;BME280;1994;48.640;8.894;2022-08-20T12:37:31;96294.69;;;25.39;56.30
3960;BME280;1994;48.640;8.894;2022-08-20T12:39:59;96293.53;;;25.49;55.02
3960;BME280;1994;48.640;8.894;2022-08-20T12:42:27;96293.28;;;25.83;52.67
3960;BME280;1994;48.640;8.894;2022-08-20T12:44:57;96290.81;;;25.78;52.68
3960;BME280;1994;48.640;8.894;2022-08-20T12:47:31;96284.81;;;26.22;52.21
3960;BME280;1994;48.640;8.894;2022-08-20T12:50:10;96275.16;;;26.74;52.00
3960;BME280;1994;48.640;8.894;2022-08-20T12:52:37;96274.88;;;27.63;49.92
3960;BME280;1994;48.640;8.894;2022-08-20T12:55:04;96277.66;;;28.37;48.58
3960;BME280;1994;48.640;8.894;2022-08-20T12:57:35;96279.25;;;28.69;47.82
3960;BME280;1994;48.640;8.894;2022-08-20T13:00:14;96277.53;;;28.61;47.02
3960;BME280;1994;48.640;8.894;2022-08-20T13:02:43;96277.34;;;28.54;47.79
3960;BME280;1994;48.640;8.894;2022-08-20T13:05:11;96273.50;;;28.98;46.61
3960;BME280;1994;48.640;8.894;2022-08-20T13:07:39;96271.84;;;29.09;45.33
3960;BME280;1994;48.640;8.894;2022-08-20T13:10:09;96269.75;;;29.18;45.55
3960;BME280;1994;48.640;8.894;2022-08-20T13:12:38;96272.03;;;29.35;45.01
3960;BME280;1994;48.640;8.894;2022-08-20T13:15:04;96278.38;;;29.61;44.33
3960;BME280;1994;48.640;8.894;2022-08-20T13:17:31;96269.97;;;30.01;43.86
3960;BME280;1994;48.640;8.894;2022-08-20T13:19:59;96266.63;;;30.23;43.82
3960;BME280;1994;48.640;8.894;2022-08-20T13:22:25;96270.19;;;30.53;43.13
3960;BME280;1994;48.640;8.894;2022-08-20T13:24:53;96269.41;;;30.30;43.26
3960;BME280;1994;48.640;8.894;2022-08-20T13:27:19;96264.47;;;30.77;42.21
3960;BME280;1994;48.640;8.894;2022-08-20T13:29:52;96267.50;;;30.98;40.75
3960;BME280;1994;48.640;8.894;2022-08-20T13:32:20;96268.44;;;30.83;41.60
3960;BME280;1994;48.640;8.894;2022-08-20T13:34:47;96257.28;;;31.03;40.85
3960;BME280;1994;48.640;8.894;2022-08-20T13:37:19;96276.75;;;30.78;41.12
3960;BME280;1994;48.640;8.894;2022-08-20T13:39:46;96253.88;;;31.32;40.50
3960;BME280;1994;48.640;8.894;2022-08-20T13:42:15;96250.81;;;31.08;40.21
3960;BME280;1994;48.640;8.894;2022-08-20T13:44:44;96247.31;;;31.04;40.28